createdAt,value
2022-10-13T00:01:42.274Z,11.72
2022-10-13T00:04:11.782Z,11.72
2022-10-13T00:06:41.835Z,11.72
2022-10-13T00:09:11.577Z,11.74
2022-10-13T00:11:41.860Z,11.76
2022-10-13T00:14:11.505Z,11.76
2022-10-13T00:16:41.338Z,11.75
2022-10-13T00:19:14.990Z,11.74
2022-10-13T00:21:44.396Z,11.75
2022-10-13T00:24:14.076Z,11.75
2022-10-13T00:26:42.900Z,11.76
2022-10-13T00:29:14.783Z,11.76
2022-10-13T00:31:43.904Z,11.78
2022-10-13T00:34:13.967Z,11.79
2022-10-13T00:36:44.185Z,11.79
2022-10-13T00:39:15.772Z,11.76
2022-10-13T00:41:47.751Z,11.75
2022-10-13T00:45:00.156Z,11.73
2022-10-13T00:47:37.120Z,11.72
2022-10-13T00:50:13.345Z,11.73
2022-10-13T00:52:44.179Z,11.72
2022-10-13T00:55:21.693Z,11.71
2022-10-13T00:57:56.671Z,11.70
2022-10-13T01:00:35.588Z,11.71
2022-10-13T01:03:08.407Z,11.69
2022-10-13T01:05:41.171Z,11.66
2022-10-13T01:08:13.070Z,11.65
2022-10-13T01:10:46.213Z,11.63
2022-10-13T01:13:21.822Z,11.62
2022-10-13T01:16:23.617Z,11.61
2022-10-13T01:19:32.952Z,11.60
2022-10-13T01:22:16.443Z,11.57
2022-10-13T01:25:29.472Z,11.54
2022-10-13T01:28:02.025Z,11.50
2022-10-13T01:30:39.281Z,11.47
2022-10-13T01:33:32.621Z,11.47
2022-10-13T01:36:22.596Z,11.46
2022-10-13T01:39:06.137Z,11.45
2022-10-13T01:41:45.362Z,11.45
2022-10-13T01:44:38.315Z,11.44
2022-10-13T01:47:13.378Z,11.43
2022-10-13T01:49:46.057Z,11.43
2022-10-13T01:52:19.821Z,11.43
2022-10-13T01:54:54.896Z,11.42
2022-10-13T01:57:34.491Z,11.40
2022-10-13T02:00:16.012Z,11.39
2022-10-13T02:02:55.342Z,11.39
2022-10-13T02:05:34.032Z,11.38
2022-10-13T02:08:11.593Z,11.37
2022-10-13T02:10:48.380Z,11.37
2022-10-13T02:13:23.879Z,11.35
2022-10-13T02:16:02.829Z,11.34
2022-10-13T02:18:37.374Z,11.32
2022-10-13T02:21:09.119Z,11.30
2022-10-13T02:23:39.196Z,11.27
2022-10-13T02:26:11.807Z,11.24
2022-10-13T02:28:42.357Z,11.22
2022-10-13T02:31:12.944Z,11.21
2022-10-13T02:33:42.676Z,11.19
2022-10-13T02:36:13.340Z,11.19
2022-10-13T02:38:43.310Z,11.19
2022-10-13T02:41:13.137Z,11.20
2022-10-13T02:43:42.977Z,11.21
2022-10-13T02:46:13.082Z,11.23
2022-10-13T02:48:42.733Z,11.26
2022-10-13T02:51:12.432Z,11.27
2022-10-13T02:53:43.034Z,11.27
2022-10-13T02:56:13.853Z,11.28
2022-10-13T02:58:44.497Z,11.29
2022-10-13T03:01:16.299Z,11.33
2022-10-13T03:03:46.343Z,11.35
2022-10-13T03:06:16.571Z,11.37
2022-10-13T03:08:46.556Z,11.38
2022-10-13T03:11:15.811Z,11.39
2022-10-13T03:13:45.259Z,11.39
2022-10-13T03:16:13.957Z,11.40
2022-10-13T03:18:42.897Z,11.39
2022-10-13T03:21:11.607Z,11.38
2022-10-13T03:23:41.384Z,11.37
2022-10-13T03:26:10.994Z,11.37
2022-10-13T03:28:40.113Z,11.36
2022-10-13T03:31:12.098Z,11.36
2022-10-13T03:33:41.404Z,11.34
2022-10-13T03:36:13.667Z,11.34
2022-10-13T03:38:44.630Z,11.35
2022-10-13T03:41:16.677Z,11.35
2022-10-13T03:43:47.040Z,11.35
2022-10-13T03:46:18.216Z,11.36
2022-10-13T03:48:48.848Z,11.37
2022-10-13T03:51:20.462Z,11.36
2022-10-13T03:53:53.309Z,11.36
2022-10-13T03:56:27.544Z,11.34
2022-10-13T03:58:59.326Z,11.32
2022-10-13T04:01:31.145Z,11.31
2022-10-13T04:04:04.456Z,11.30
2022-10-13T04:06:33.974Z,11.28
2022-10-13T04:09:02.737Z,11.26
2022-10-13T04:11:31.475Z,11.25
2022-10-13T04:14:00.085Z,11.23
2022-10-13T04:16:31.213Z,11.22
2022-10-13T04:19:06.396Z,11.20
2022-10-13T04:21:36.038Z,11.17
2022-10-13T04:24:05.863Z,11.15
2022-10-13T04:26:36.608Z,11.12
2022-10-13T04:29:12.616Z,11.09
2022-10-13T04:31:44.209Z,11.08
2022-10-13T04:34:13.566Z,11.08
2022-10-13T04:36:42.216Z,11.09
2022-10-13T04:39:11.040Z,11.09
2022-10-13T04:41:39.986Z,11.08
2022-10-13T04:44:09.393Z,11.08
2022-10-13T04:46:37.969Z,11.08
2022-10-13T04:49:06.778Z,11.09
2022-10-13T04:51:36.585Z,11.10
2022-10-13T04:54:06.182Z,11.12
2022-10-13T04:56:35.236Z,11.13
2022-10-13T04:59:06.244Z,11.12
2022-10-13T05:01:36.379Z,11.12
2022-10-13T05:04:08.564Z,11.13
2022-10-13T05:07:12.651Z,11.11
2022-10-13T05:09:32.685Z,11.09
2022-10-13T05:12:02.452Z,11.08
2022-10-13T05:14:32.573Z,11.11
2022-10-13T05:17:15.311Z,11.13
2022-10-13T05:19:55.488Z,11.15
2022-10-13T05:22:28.846Z,11.16
2022-10-13T05:24:57.776Z,11.18
2022-10-13T05:27:28.896Z,11.19
2022-10-13T05:29:57.866Z,11.22
2022-10-13T05:32:27.169Z,11.25
2022-10-13T05:35:01.080Z,11.26
2022-10-13T05:37:30.589Z,11.27
2022-10-13T05:40:00.117Z,11.26
2022-10-13T05:42:30.328Z,11.22
2022-10-13T05:44:59.059Z,11.21
2022-10-13T05:47:28.531Z,11.16
2022-10-13T05:49:58.049Z,11.14
2022-10-13T05:52:28.151Z,11.14
2022-10-13T05:55:02.623Z,11.14
2022-10-13T05:57:38.818Z,11.15
2022-10-13T06:00:14.881Z,11.16
2022-10-13T06:02:55.299Z,11.17
2022-10-13T06:05:26.760Z,11.18
2022-10-13T06:07:58.732Z,11.17
2022-10-13T06:10:28.647Z,11.16
2022-10-13T06:12:57.934Z,11.16
2022-10-13T06:15:28.287Z,11.17
2022-10-13T06:17:58.165Z,11.20
2022-10-13T06:20:28.004Z,11.25
2022-10-13T06:22:56.928Z,11.28
2022-10-13T06:25:25.486Z,11.31
2022-10-13T06:27:59.499Z,11.32
2022-10-13T06:30:35.271Z,11.34
2022-10-13T06:33:17.945Z,11.37
2022-10-13T06:35:47.076Z,11.37
2022-10-13T06:38:16.100Z,11.38
2022-10-13T06:40:44.563Z,11.38
2022-10-13T06:43:13.039Z,11.37
2022-10-13T06:45:44.480Z,11.37
2022-10-13T06:48:13.156Z,11.37
2022-10-13T06:50:43.019Z,11.37
2022-10-13T06:53:11.565Z,11.38
2022-10-13T06:55:40.285Z,11.38
2022-10-13T06:58:08.639Z,11.39
2022-10-13T07:00:38.662Z,11.42
2022-10-13T07:03:06.992Z,11.44
2022-10-13T07:05:38.158Z,11.42
2022-10-13T07:08:10.528Z,11.44
2022-10-13T07:10:41.337Z,11.48
2022-10-13T07:13:10.098Z,11.53
2022-10-13T07:15:40.354Z,11.58
2022-10-13T07:18:11.756Z,11.62
2022-10-13T07:20:41.013Z,11.68
2022-10-13T07:23:09.468Z,11.74
2022-10-13T07:25:38.297Z,11.81
2022-10-13T07:28:06.823Z,11.86
2022-10-13T07:30:35.226Z,11.91
2022-10-13T07:33:11.795Z,11.96
2022-10-13T07:35:47.514Z,11.98
2022-10-13T07:38:27.165Z,12.01
2022-10-13T07:41:02.632Z,12.04
2022-10-13T07:43:31.797Z,12.03
2022-10-13T07:46:04.861Z,12.03
2022-10-13T07:48:40.799Z,12.04
2022-10-13T07:51:16.251Z,12.04
2022-10-13T07:53:48.750Z,12.04
2022-10-13T07:56:17.706Z,12.04
2022-10-13T07:58:47.931Z,12.04
2022-10-13T08:01:16.958Z,12.06
2022-10-13T08:03:49.793Z,12.07
2022-10-13T08:06:22.541Z,12.03
2022-10-13T08:08:55.710Z,12.02
2022-10-13T08:11:24.459Z,12.00
2022-10-13T08:13:54.327Z,11.96
2022-10-13T08:16:23.042Z,11.93
2022-10-13T08:18:51.800Z,11.92
2022-10-13T08:24:14.321Z,11.88
2022-10-13T08:26:46.724Z,11.83
2022-10-13T08:29:24.092Z,11.79
2022-10-13T08:31:54.120Z,11.73
2022-10-13T08:34:24.427Z,11.72
2022-10-13T08:36:56.606Z,11.71
2022-10-13T08:39:25.382Z,11.69
2022-10-13T08:41:57.626Z,11.68
2022-10-13T08:45:10.869Z,11.69
2022-10-13T08:47:28.454Z,11.66
2022-10-13T08:50:03.077Z,11.65
2022-10-13T08:52:57.689Z,11.64
2022-10-13T08:55:55.586Z,11.62
2022-10-13T08:58:35.532Z,11.60
2022-10-13T09:01:30.462Z,11.58
2022-10-13T09:04:19.693Z,11.54
2022-10-13T09:06:56.026Z,11.48
2022-10-13T09:09:24.871Z,11.45
2022-10-13T09:11:53.465Z,11.43
2022-10-13T09:14:34.732Z,11.42
2022-10-13T09:17:16.978Z,11.42
2022-10-13T09:20:20.501Z,11.41
2022-10-13T09:23:15.825Z,11.42
2022-10-13T09:25:51.329Z,11.39
2022-10-13T09:28:30.190Z,11.36
2022-10-13T09:31:02.380Z,11.32
2022-10-13T09:33:43.465Z,11.31
2022-10-13T09:36:15.752Z,11.33
2022-10-13T09:39:13.438Z,11.35
2022-10-13T09:41:43.760Z,11.39
2022-10-13T09:44:32.183Z,11.40
2022-10-13T09:47:03.591Z,11.43
2022-10-13T09:49:38.292Z,11.44
2022-10-13T09:52:13.059Z,11.46
2022-10-13T09:54:53.589Z,11.48
2022-10-13T09:57:46.087Z,11.47
2022-10-13T10:00:21.368Z,11.47
2022-10-13T10:03:21.590Z,11.45
2022-10-13T10:06:20.779Z,11.42
2022-10-13T10:09:25.048Z,11.43
2022-10-13T10:11:55.331Z,11.44
2022-10-13T10:14:31.052Z,11.50
2022-10-13T10:17:22.150Z,11.56
2022-10-13T10:20:07.014Z,11.61
2022-10-13T10:23:11.074Z,11.68
2022-10-13T10:26:03.104Z,11.75
2022-10-13T10:28:50.245Z,11.81
2022-10-13T10:31:27.610Z,11.79
2022-10-13T10:34:14.895Z,11.77
2022-10-13T10:36:52.943Z,11.75
2022-10-13T10:39:27.774Z,11.73
2022-10-13T10:42:26.974Z,11.76
2022-10-13T10:44:57.833Z,11.76
2022-10-13T10:47:35.192Z,11.78
2022-10-13T10:50:07.589Z,11.82
2022-10-13T10:53:03.802Z,11.85
2022-10-13T10:55:53.584Z,11.88
2022-10-13T10:58:34.148Z,11.89
2022-10-13T11:01:11.290Z,11.90
2022-10-13T11:04:02.449Z,11.92
2022-10-13T11:06:38.208Z,11.94
2022-10-13T11:09:11.281Z,11.96
2022-10-13T11:11:43.546Z,11.97
2022-10-13T11:14:28.747Z,11.99
2022-10-13T11:17:17.087Z,12.01
2022-10-13T11:19:48.346Z,12.05
2022-10-13T11:22:19.416Z,12.10
2022-10-13T11:24:54.041Z,12.13
2022-10-13T11:27:41.016Z,12.13
2022-10-13T11:30:58.939Z,12.13
2022-10-13T11:33:39.623Z,12.08
2022-10-13T11:36:44.532Z,12.07
2022-10-13T11:39:28.475Z,12.05
2022-10-13T11:42:02.694Z,12.03
2022-10-13T11:44:46.333Z,12.06
2022-10-13T11:47:55.853Z,12.11
2022-10-13T11:50:49.956Z,12.17
2022-10-13T11:53:28.396Z,12.18
2022-10-13T11:55:59.121Z,12.20
2022-10-13T11:58:30.505Z,12.26
2022-10-13T12:01:12.877Z,12.34
2022-10-13T12:03:46.793Z,12.39
2022-10-13T12:06:35.957Z,12.45
2022-10-13T12:09:20.429Z,12.49
2022-10-13T12:12:11.774Z,12.49
2022-10-13T12:14:44.579Z,12.53
2022-10-13T12:17:23.356Z,12.54
2022-10-13T12:19:58.348Z,12.58
2022-10-13T12:22:28.831Z,12.61
2022-10-13T12:25:07.892Z,12.63
2022-10-13T12:27:49.547Z,12.62
2022-10-13T12:30:29.170Z,12.62
2022-10-13T12:33:00.161Z,12.60
2022-10-13T12:35:33.866Z,12.62
2022-10-13T12:38:17.810Z,12.66
2022-10-13T12:40:52.009Z,12.67
2022-10-13T12:43:27.872Z,12.70
2022-10-13T12:45:56.365Z,12.74
2022-10-13T12:48:32.328Z,12.77
2022-10-13T12:51:30.043Z,12.81
2022-10-13T12:53:58.563Z,12.86
2022-10-13T12:56:31.501Z,12.95
2022-10-13T12:59:00.556Z,13.02
2022-10-13T13:01:35.983Z,13.04
2022-10-13T13:04:22.505Z,13.09
2022-10-13T13:07:01.093Z,13.16
2022-10-13T13:09:37.132Z,13.18
2022-10-13T13:12:11.350Z,13.15
2022-10-13T13:14:45.385Z,13.18
2022-10-13T13:20:35.091Z,13.28
2022-10-13T13:23:03.780Z,13.30
2022-10-13T13:25:32.423Z,13.35
2022-10-13T13:28:05.497Z,13.32
2022-10-13T13:30:33.930Z,13.27
2022-10-13T13:33:02.774Z,13.24
2022-10-13T13:35:32.130Z,13.22
2022-10-13T13:38:00.913Z,13.20
2022-10-13T13:40:30.149Z,13.19
2022-10-13T13:42:59.501Z,13.21
2022-10-13T13:45:34.211Z,13.18
2022-10-13T13:48:04.367Z,13.13
2022-10-13T13:50:36.426Z,13.02
2022-10-13T13:53:06.643Z,13.00
2022-10-13T13:55:39.344Z,12.94
2022-10-13T13:58:09.637Z,12.90
2022-10-13T14:00:38.300Z,12.91
2022-10-13T14:03:06.806Z,12.89
2022-10-13T14:05:41.663Z,12.89
2022-10-13T14:08:11.868Z,12.92
2022-10-13T14:10:42.553Z,12.94
2022-10-13T14:13:12.157Z,12.95
2022-10-13T14:15:42.411Z,12.98
2022-10-13T14:18:14.384Z,12.97
2022-10-13T14:20:45.697Z,12.95
2022-10-13T14:23:14.314Z,12.91
2022-10-13T14:25:42.646Z,12.89
2022-10-13T14:28:14.585Z,12.85
2022-10-13T14:30:55.612Z,12.78
2022-10-13T14:33:26.750Z,12.73
2022-10-13T14:36:06.745Z,12.68
2022-10-13T14:38:35.607Z,12.66
2022-10-13T14:41:05.870Z,12.63
2022-10-13T14:43:34.286Z,12.62
2022-10-13T14:46:04.451Z,12.59
2022-10-13T14:48:34.959Z,12.57
2022-10-13T14:51:06.574Z,12.56
2022-10-13T14:53:38.510Z,12.55
2022-10-13T14:56:22.727Z,12.57
2022-10-13T14:58:56.536Z,12.83
2022-10-13T15:01:26.076Z,13.12
2022-10-13T15:03:54.538Z,13.10
2022-10-13T15:06:25.668Z,13.01
2022-10-13T15:08:54.108Z,12.95
2022-10-13T15:11:24.630Z,12.91
2022-10-13T15:13:53.355Z,12.82
2022-10-13T15:16:24.589Z,12.72
2022-10-13T15:18:53.145Z,12.56
2022-10-13T15:21:22.025Z,12.45
2022-10-13T15:23:50.756Z,12.39
2022-10-13T15:26:20.660Z,12.31
2022-10-13T15:28:50.597Z,12.23
2022-10-13T15:31:21.932Z,12.15
2022-10-13T15:33:52.815Z,12.07
2022-10-13T15:36:23.482Z,12.01
2022-10-13T15:38:52.584Z,11.94
2022-10-13T15:41:23.335Z,11.89
2022-10-13T15:43:52.183Z,11.84
2022-10-13T15:46:24.494Z,11.80
2022-10-13T15:48:54.445Z,11.75
2022-10-13T15:51:24.446Z,11.70
2022-10-13T15:53:52.705Z,11.65
2022-10-13T15:56:21.477Z,11.59
2022-10-13T15:58:50.308Z,11.54
2022-10-13T16:01:18.807Z,11.51
2022-10-13T16:03:47.330Z,11.51
2022-10-13T16:06:15.837Z,11.51
2022-10-13T16:08:44.723Z,11.45
2022-10-13T16:11:16.117Z,11.41
2022-10-13T16:13:48.947Z,11.37
2022-10-13T16:16:18.855Z,11.34
2022-10-13T16:18:47.651Z,11.30
2022-10-13T16:21:26.078Z,11.27
2022-10-13T16:23:54.652Z,11.22
2022-10-13T16:26:24.166Z,11.17
2022-10-13T16:29:00.742Z,11.15
2022-10-13T16:31:35.343Z,11.12
2022-10-13T16:34:04.927Z,11.10
2022-10-13T16:36:39.849Z,11.07
2022-10-13T16:39:09.438Z,11.05
2022-10-13T16:41:40.636Z,11.01
2022-10-13T16:44:13.252Z,10.96
2022-10-13T16:46:51.863Z,10.91
2022-10-13T16:49:36.223Z,10.87
2022-10-13T16:52:11.525Z,10.84
2022-10-13T16:54:42.767Z,10.82
2022-10-13T16:57:12.475Z,10.80
2022-10-13T16:59:43.326Z,10.78
2022-10-13T17:02:15.174Z,10.76
2022-10-13T17:04:44.376Z,10.75
2022-10-13T17:07:13.085Z,10.73
2022-10-13T17:09:41.739Z,10.72
2022-10-13T17:12:11.244Z,10.69
2022-10-13T17:14:39.638Z,10.67
2022-10-13T17:17:08.099Z,10.65
2022-10-13T17:19:36.608Z,10.62
2022-10-13T17:22:05.015Z,10.60
2022-10-13T17:24:35.589Z,10.58
2022-10-13T17:27:04.126Z,10.58
2022-10-13T17:29:33.000Z,10.57
2022-10-13T17:32:01.695Z,10.56
2022-10-13T17:34:30.228Z,10.55
2022-10-13T17:37:01.404Z,10.54
2022-10-13T17:39:30.188Z,10.55
2022-10-13T17:41:58.563Z,10.56
2022-10-13T17:44:27.016Z,10.58
2022-10-13T17:46:55.321Z,10.59
2022-10-13T17:49:24.183Z,10.59
2022-10-13T17:51:54.218Z,10.58
2022-10-13T17:54:22.413Z,10.56
2022-10-13T17:56:50.854Z,10.53
2022-10-13T17:59:19.454Z,10.50
2022-10-13T18:01:48.056Z,10.46
2022-10-13T18:04:19.027Z,10.42
2022-10-13T18:06:47.748Z,10.38
2022-10-13T18:09:23.441Z,10.35
2022-10-13T18:11:53.969Z,10.33
2022-10-13T18:14:25.264Z,10.30
2022-10-13T18:16:54.268Z,10.29
2022-10-13T18:19:23.018Z,10.28
2022-10-13T18:21:53.199Z,10.26
2022-10-13T18:24:21.544Z,10.25
2022-10-13T18:26:49.867Z,10.22
2022-10-13T18:29:18.205Z,10.19
2022-10-13T18:31:46.686Z,10.16
2022-10-13T18:34:17.454Z,10.12
2022-10-13T18:36:48.486Z,10.09
2022-10-13T18:39:21.664Z,10.06
2022-10-13T18:41:50.881Z,10.03
2022-10-13T18:44:20.525Z,9.99
2022-10-13T18:46:51.070Z,9.95
2022-10-13T18:49:23.359Z,9.91
2022-10-13T18:51:52.361Z,9.90
2022-10-13T18:54:20.808Z,9.89
2022-10-13T18:56:49.413Z,9.89
2022-10-13T18:59:18.001Z,9.90
2022-10-13T19:01:46.887Z,9.90
2022-10-13T19:04:16.949Z,9.91
2022-10-13T19:06:46.691Z,9.91
2022-10-13T19:09:17.565Z,9.92
2022-10-13T19:11:46.072Z,9.91
2022-10-13T19:14:17.855Z,9.86
2022-10-13T19:16:46.348Z,9.82
2022-10-13T19:19:15.362Z,9.81
2022-10-13T19:21:43.880Z,9.82
2022-10-13T19:24:12.412Z,9.84
2022-10-13T19:26:41.427Z,9.85
2022-10-13T19:29:14.248Z,9.87
2022-10-13T19:31:43.734Z,9.89
2022-10-13T19:34:13.677Z,9.90
2022-10-13T19:36:44.809Z,9.92
2022-10-13T19:39:17.145Z,9.93
2022-10-13T19:41:47.485Z,9.95
2022-10-13T19:44:17.877Z,9.96
2022-10-13T19:46:47.913Z,9.97
2022-10-13T19:49:17.645Z,9.99
2022-10-13T19:51:47.255Z,10.00
2022-10-13T19:54:17.845Z,10.01
2022-10-13T19:56:48.703Z,10.02
2022-10-13T19:59:18.816Z,10.04
2022-10-13T20:01:47.840Z,10.05
2022-10-13T20:04:18.705Z,10.05
2022-10-13T20:06:51.463Z,10.07
2022-10-13T20:09:22.156Z,10.09
2022-10-13T20:11:52.192Z,10.10
2022-10-13T20:14:20.876Z,10.13
2022-10-13T20:16:49.324Z,10.15
2022-10-13T20:19:19.941Z,10.17
2022-10-13T20:21:52.889Z,10.19
2022-10-13T20:24:23.326Z,10.21
2022-10-13T20:26:51.685Z,10.22
2022-10-13T20:29:23.670Z,10.21
2022-10-13T20:31:52.060Z,10.18
2022-10-13T20:34:20.519Z,10.13
2022-10-13T20:36:51.451Z,10.07
2022-10-13T20:39:20.533Z,10.01
2022-10-13T20:41:49.298Z,9.91
2022-10-13T20:44:19.013Z,9.86
2022-10-13T20:46:47.536Z,9.81
2022-10-13T20:49:16.032Z,9.76
2022-10-13T20:51:45.370Z,9.71
2022-10-13T20:54:15.439Z,9.65
2022-10-13T20:56:44.487Z,9.59
2022-10-13T20:59:17.075Z,9.54
2022-10-13T21:01:46.669Z,9.50
2022-10-13T21:04:15.352Z,9.48
2022-10-13T21:06:43.881Z,9.44
2022-10-13T21:09:12.826Z,9.41
2022-10-13T21:11:44.136Z,9.37
2022-10-13T21:14:12.748Z,9.32
2022-10-13T21:16:43.286Z,9.27
2022-10-13T21:19:13.711Z,9.21
2022-10-13T21:21:42.601Z,9.14
2022-10-13T21:24:11.391Z,9.08
2022-10-13T21:26:41.819Z,9.03
2022-10-13T21:29:16.625Z,8.97
2022-10-13T21:31:45.438Z,8.91
2022-10-13T21:34:14.007Z,8.86
2022-10-13T21:36:44.701Z,8.80
2022-10-13T21:39:15.267Z,8.72
2022-10-13T21:41:44.098Z,8.64
2022-10-13T21:44:15.088Z,8.58
2022-10-13T21:46:43.748Z,8.54
2022-10-13T21:49:12.401Z,8.50
2022-10-13T21:51:41.251Z,8.48
2022-10-13T21:54:12.976Z,8.48
2022-10-13T21:56:43.257Z,8.46
2022-10-13T21:59:13.286Z,8.46
2022-10-13T22:01:42.065Z,8.47
2022-10-13T22:04:15.530Z,8.47
2022-10-13T22:06:44.894Z,8.46
2022-10-13T22:09:14.500Z,8.45
2022-10-13T22:11:44.132Z,8.46
2022-10-13T22:14:13.927Z,8.47
2022-10-13T22:16:46.149Z,8.47
2022-10-13T22:19:17.306Z,8.48
2022-10-13T22:21:48.408Z,8.48
2022-10-13T22:24:21.066Z,8.49
2022-10-13T22:26:50.573Z,8.51
2022-10-13T22:29:21.969Z,8.52
2022-10-13T22:31:56.501Z,8.51
2022-10-13T22:34:26.924Z,8.51
2022-10-13T22:36:55.899Z,8.51
2022-10-13T22:39:24.639Z,8.52
2022-10-13T22:41:55.131Z,8.53
2022-10-13T22:44:24.731Z,8.54
2022-10-13T22:46:53.547Z,8.57
2022-10-13T22:49:22.310Z,8.58
2022-10-13T22:51:51.014Z,8.59
2022-10-13T22:54:20.900Z,8.60
2022-10-13T22:56:49.775Z,8.62
2022-10-13T22:59:21.303Z,8.63
2022-10-13T23:01:51.366Z,8.65
2022-10-13T23:04:21.201Z,8.64
2022-10-13T23:06:50.175Z,8.62
2022-10-13T23:09:18.861Z,8.59
2022-10-13T23:11:48.764Z,8.57
2022-10-13T23:14:21.433Z,8.56
2022-10-13T23:16:51.057Z,8.55
2022-10-13T23:19:20.875Z,8.49
2022-10-13T23:21:49.901Z,8.43
2022-10-13T23:24:19.963Z,8.39
2022-10-13T23:26:49.494Z,8.37
2022-10-13T23:29:19.093Z,8.34
2022-10-13T23:31:47.936Z,8.33
2022-10-13T23:34:17.279Z,8.30
2022-10-13T23:36:47.515Z,8.28
2022-10-13T23:39:16.396Z,8.26
2022-10-13T23:41:46.467Z,8.26
2022-10-13T23:44:17.575Z,8.26
2022-10-13T23:46:49.658Z,8.25
2022-10-13T23:49:20.115Z,8.23
2022-10-13T23:51:49.319Z,8.21
2022-10-13T23:54:19.203Z,8.20
2022-10-13T23:56:47.917Z,8.21
2022-10-13T23:59:17.365Z,8.20
